Time;durP1;ratioP1;P1;durP2;ratioP2;P2;SDS_P1;SDS_P2;PMS_P1;PMS_P2;Temp;Humidity;BMP_temperature;BMP_pressure;BME280_temperature;BME280_humidity;BME280_pressure;Samples;Min_cycle;Max_cycle;Signal;HPM_P1;HPM_P2
2021/11/22 00:00:36;;;;;;;13.43;10.70;;;;;;;;;;4976004;28;20208;-88
2021/11/22 00:03:05;;;;;;;12.90;10.33;;;;;;;;;;4975046;28;20282;-88
2021/11/22 00:05:32;;;;;;;10.17;9.20;;;;;;;;;;4975953;28;20284;-88
2021/11/22 00:08:01;;;;;;;11.17;10.07;;;;;;;;;;4975723;28;20260;-88
2021/11/22 00:10:28;;;;;;;11.50;10.30;;;;;;;;;;4976111;28;20200;-88
2021/11/22 00:12:56;;;;;;;10.77;9.80;;;;;;;;;;4975642;28;20224;-88
2021/11/22 00:15:23;;;;;;;11.83;10.17;;;;;;;;;;4975932;28;20685;-88
2021/11/22 00:17:50;;;;;;;10.80;9.70;;;;;;;;;;4976120;28;20227;-88
2021/11/22 00:20:20;;;;;;;10.90;9.80;;;;;;;;;;4975713;28;20197;-88
2021/11/22 00:22:47;;;;;;;10.30;9.20;;;;;;;;;;4975817;28;20269;-88
2021/11/22 00:25:17;;;;;;;12.43;9.73;;;;;;;;;;4975573;28;20212;-88
2021/11/22 00:27:45;;;;;;;10.43;9.33;;;;;;;;;;4975957;28;20204;-88
2021/11/22 00:30:13;;;;;;;11.13;10.03;;;;;;;;;;4975353;28;20225;-89
2021/11/22 00:32:43;;;;;;;11.00;9.50;;;;;;;;;;4975369;28;20204;-88
2021/11/22 00:35:10;;;;;;;12.70;10.30;;;;;;;;;;4975480;28;20243;-89
2021/11/22 00:37:40;;;;;;;10.57;9.57;;;;;;;;;;4974885;28;20197;-89
2021/11/22 00:40:10;;;;;;;10.10;8.93;;;;;;;;;;4975427;28;20665;-87
2021/11/22 00:42:39;;;;;;;10.27;9.27;;;;;;;;;;4975169;28;20209;-87
2021/11/22 00:45:07;;;;;;;11.03;9.93;;;;;;;;;;4974913;28;20226;-87
2021/11/22 00:47:36;;;;;;;10.33;9.23;;;;;;;;;;4974842;28;20256;-87
2021/11/22 00:50:04;;;;;;;9.87;8.87;;;;;;;;;;4974646;28;20300;-87
2021/11/22 00:52:31;;;;;;;11.03;9.13;;;;;;;;;;4974871;28;20601;-87
2021/11/22 00:54:59;;;;;;;12.10;10.90;;;;;;;;;;4974522;28;20229;-87
2021/11/22 00:57:26;;;;;;;11.63;9.50;;;;;;;;;;4974794;28;20637;-87
2021/11/22 00:59:55;;;;;;;12.80;10.23;;;;;;;;;;4974785;28;20224;-87
2021/11/22 01:02:23;;;;;;;12.43;10.73;;;;;;;;;;4974669;28;20673;-89
2021/11/22 01:04:50;;;;;;;14.17;12.60;;;;;;;;;;4974779;28;20212;-88
2021/11/22 01:07:17;;;;;;;15.30;11.77;;;;;;;;;;4974762;28;20256;-88
2021/11/22 01:09:45;;;;;;;12.87;11.53;;;;;;;;;;4974949;28;20201;-88
2021/11/22 01:12:12;;;;;;;13.80;12.17;;;;;;;;;;4974902;28;20225;-88
2021/11/22 01:14:40;;;;;;;11.43;9.40;;;;;;;;;;4974081;28;20287;-86
2021/11/22 01:17:08;;;;;;;10.60;9.53;;;;;;;;;;4974513;28;20621;-87
2021/11/22 01:19:36;;;;;;;10.77;9.67;;;;;;;;;;4974584;28;20288;-87
2021/11/22 01:22:03;;;;;;;9.63;8.73;;;;;;;;;;4974208;28;20561;-87
2021/11/22 01:24:31;;;;;;;8.37;7.57;;;;;;;;;;4974176;28;20233;-87
2021/11/22 01:26:58;;;;;;;11.10;9.70;;;;;;;;;;4974183;28;20666;-87
2021/11/22 01:29:26;;;;;;;9.23;8.40;;;;;;;;;;4974519;28;20232;-87
2021/11/22 01:31:53;;;;;;;9.47;8.57;;;;;;;;;;4974227;28;20189;-87
2021/11/22 01:34:22;;;;;;;12.50;10.07;;;;;;;;;;4974056;28;20283;-87
2021/11/22 01:36:49;;;;;;;10.13;9.07;;;;;;;;;;4974061;28;20745;-87
2021/11/22 01:39:16;;;;;;;9.87;8.03;;;;;;;;;;4974412;28;20644;-87
2021/11/22 01:41:43;;;;;;;9.80;8.67;;;;;;;;;;4974107;28;20244;-88
2021/11/22 01:44:11;;;;;;;9.53;8.63;;;;;;;;;;4974333;28;20260;-88
2021/11/22 01:46:38;;;;;;;14.10;9.67;;;;;;;;;;4974309;28;20203;-88
2021/11/22 01:49:05;;;;;;;10.67;9.00;;;;;;;;;;4974257;28;20623;-88
2021/11/22 01:51:34;;;;;;;11.40;10.30;;;;;;;;;;4973932;28;20294;-88
2021/11/22 01:54:01;;;;;;;12.07;9.93;;;;;;;;;;4974007;28;20311;-88
2021/11/22 01:56:29;;;;;;;11.30;8.97;;;;;;;;;;4974130;28;20634;-87
2021/11/22 01:58:56;;;;;;;11.43;9.47;;;;;;;;;;4974228;28;20208;-88
2021/11/22 02:01:24;;;;;;;11.50;9.43;;;;;;;;;;4974042;28;20653;-87
2021/11/22 02:03:51;;;;;;;10.00;8.83;;;;;;;;;;4973593;28;20296;-88
2021/11/22 02:06:19;;;;;;;9.93;8.80;;;;;;;;;;4973957;28;20231;-87
2021/11/22 02:08:48;;;;;;;10.23;9.23;;;;;;;;;;4974013;28;20616;-88
2021/11/22 02:11:17;;;;;;;11.73;9.13;;;;;;;;;;4973662;28;20208;-87
2021/11/22 02:13:44;;;;;;;10.50;9.43;;;;;;;;;;4973863;28;20224;-88
2021/11/22 02:16:12;;;;;;;9.83;8.73;;;;;;;;;;4973659;28;20200;-87
2021/11/22 02:18:42;;;;;;;10.50;9.37;;;;;;;;;;4973763;28;20232;-88
2021/11/22 02:21:11;;;;;;;11.17;9.83;;;;;;;;;;4973646;28;20284;-88
2021/11/22 02:23:39;;;;;;;10.97;9.63;;;;;;;;;;4973883;28;20232;-87
2021/11/22 02:26:06;;;;;;;9.77;8.77;;;;;;;;;;4973531;28;20201;-88
2021/11/22 02:28:33;;;;;;;11.30;10.17;;;;;;;;;;4973467;28;20226;-88
2021/11/22 02:31:01;;;;;;;11.07;10.00;;;;;;;;;;4973460;28;20196;-88
2021/11/22 02:33:28;;;;;;;11.37;10.03;;;;;;;;;;4973616;28;20233;-87
2021/11/22 02:35:58;;;;;;;10.03;9.03;;;;;;;;;;4973361;28;20297;-87
2021/11/22 02:38:28;;;;;;;10.47;9.37;;;;;;;;;;4973281;28;20232;-87
2021/11/22 02:40:56;;;;;;;12.47;8.93;;;;;;;;;;4973736;28;20232;-87
2021/11/22 02:43:24;;;;;;;11.77;9.33;;;;;;;;;;4973496;28;20197;-87
2021/11/22 02:45:51;;;;;;;10.37;9.23;;;;;;;;;;4973390;28;20236;-87
2021/11/22 02:48:18;;;;;;;16.30;11.17;;;;;;;;;;4973908;28;20208;-87
2021/11/22 02:50:46;;;;;;;20.73;18.60;;;;;;;;;;4973283;28;20208;-88
2021/11/22 02:53:14;;;;;;;18.40;16.50;;;;;;;;;;4973280;28;20677;-87
2021/11/22 02:55:43;;;;;;;19.53;16.03;;;;;;;;;;4973174;28;20249;-87
2021/11/22 02:58:10;;;;;;;14.87;13.37;;;;;;;;;;4973568;28;20201;-87
2021/11/22 03:00:38;;;;;;;19.20;14.17;;;;;;;;;;4976149;28;20640;-88
2021/11/22 03:03:06;;;;;;;14.23;12.77;;;;;;;;;;4976896;28;20291;-88
2021/11/22 03:05:33;;;;;;;15.50;13.30;;;;;;;;;;4976797;28;20291;-88
2021/11/22 03:08:00;;;;;;;13.47;11.87;;;;;;;;;;4976804;28;20208;-88
2021/11/22 03:10:29;;;;;;;14.10;12.70;;;;;;;;;;4976951;28;20201;-88
2021/11/22 03:13:00;;;;;;;13.23;11.60;;;;;;;;;;4976978;28;20205;-88
2021/11/22 03:15:28;;;;;;;11.73;10.60;;;;;;;;;;4977057;28;20221;-88
2021/11/22 03:17:55;;;;;;;10.93;9.43;;;;;;;;;;4976935;28;20205;-87
2021/11/22 03:20:23;;;;;;;11.07;9.97;;;;;;;;;;4976471;28;20208;-88
2021/11/22 03:22:52;;;;;;;11.53;9.40;;;;;;;;;;4976269;28;20207;-86
2021/11/22 03:25:20;;;;;;;10.63;9.23;;;;;;;;;;4975953;28;20236;-86
2021/11/22 03:27:48;;;;;;;13.13;9.17;;;;;;;;;;4976051;28;20229;-86
2021/11/22 03:30:17;;;;;;;10.53;9.47;;;;;;;;;;4975854;28;20201;-85
2021/11/22 03:32:45;;;;;;;11.77;9.43;;;;;;;;;;4976040;28;20233;-85
2021/11/22 03:35:14;;;;;;;16.97;12.33;;;;;;;;;;4976029;28;20312;-86
2021/11/22 03:37:41;;;;;;;15.13;11.77;;;;;;;;;;4976357;28;20205;-87
2021/11/22 03:40:09;;;;;;;13.10;10.40;;;;;;;;;;4976032;28;20620;-86
2021/11/22 03:42:51;;;;;;;11.60;10.30;;;;;;;;;;4975883;28;20286;-86
2021/11/22 03:45:20;;;;;;;10.10;9.10;;;;;;;;;;4976180;28;20181;-86
2021/11/22 03:47:47;;;;;;;10.77;9.50;;;;;;;;;;4975802;28;20205;-86
2021/11/22 03:50:15;;;;;;;10.93;8.77;;;;;;;;;;4975798;28;20206;-86
2021/11/22 03:52:42;;;;;;;10.47;9.43;;;;;;;;;;4975479;28;20674;-86
2021/11/22 03:55:10;;;;;;;10.70;9.60;;;;;;;;;;4975690;28;20235;-87
2021/11/22 03:57:37;;;;;;;13.07;9.80;;;;;;;;;;4975537;28;20197;-86
2021/11/22 04:00:05;;;;;;;14.43;12.73;;;;;;;;;;4975595;28;20291;-87
2021/11/22 04:02:34;;;;;;;18.83;16.03;;;;;;;;;;4974861;28;20243;-88
2021/11/22 04:05:01;;;;;;;13.93;10.87;;;;;;;;;;4975545;28;20197;-87
2021/11/22 04:07:28;;;;;;;12.57;10.37;;;;;;;;;;4975629;28;20228;-88
2021/11/22 04:09:57;;;;;;;10.00;9.00;;;;;;;;;;4972660;28;20281;-89
2021/11/22 04:12:25;;;;;;;8.93;8.13;;;;;;;;;;4974347;28;20197;-88
2021/11/22 04:14:52;;;;;;;9.27;8.40;;;;;;;;;;4975649;28;20225;-88
2021/11/22 04:17:20;;;;;;;12.20;8.93;;;;;;;;;;4975991;28;20227;-88
2021/11/22 04:19:48;;;;;;;13.47;10.20;;;;;;;;;;4975012;28;20208;-85
2021/11/22 04:22:26;;;;;;;9.90;8.30;;;;;;;;;;4974842;28;20225;-86
2021/11/22 04:24:53;;;;;;;9.70;8.80;;;;;;;;;;4976071;28;20204;-86
2021/11/22 04:27:21;;;;;;;10.10;8.97;;;;;;;;;;4975000;28;20252;-86
2021/11/22 04:29:49;;;;;;;11.47;10.17;;;;;;;;;;4974829;28;20245;-86
2021/11/22 04:32:17;;;;;;;17.73;13.80;;;;;;;;;;4974495;28;20229;-86
2021/11/22 04:34:44;;;;;;;12.47;9.60;;;;;;;;;;4974811;28;20232;-86
2021/11/22 04:37:13;;;;;;;13.93;12.53;;;;;;;;;;4974655;28;20558;-86
2021/11/22 04:39:40;;;;;;;118.07;63.87;;;;;;;;;;4974660;28;20263;-86
2021/11/22 04:42:07;;;;;;;31.77;21.97;;;;;;;;;;4974767;28;20247;-86
2021/11/22 04:44:34;;;;;;;60.23;39.63;;;;;;;;;;4966788;28;20293;-86
2021/11/22 04:47:09;;;;;;;66.43;42.23;;;;;;;;;;4955001;29;20201;-86
2021/11/22 04:49:36;;;;;;;45.17;35.37;;;;;;;;;;4955037;29;20193;-86
2021/11/22 04:52:06;;;;;;;26.37;23.60;;;;;;;;;;4954932;29;20233;-85
2021/11/22 04:54:36;;;;;;;25.87;20.90;;;;;;;;;;4954933;29;20218;-86
2021/11/22 04:57:03;;;;;;;34.10;27.07;;;;;;;;;;4954719;29;20194;-85
2021/11/22 04:59:31;;;;;;;33.50;25.53;;;;;;;;;;4954627;29;20205;-86
2021/11/22 05:01:58;;;;;;;20.33;17.10;;;;;;;;;;4954529;29;20233;-85
2021/11/22 05:04:26;;;;;;;10.53;9.33;;;;;;;;;;4954216;29;20182;-86
2021/11/22 05:06:53;;;;;;;14.37;12.83;;;;;;;;;;4954360;29;20202;-85
2021/11/22 05:09:21;;;;;;;17.33;15.07;;;;;;;;;;4955019;29;20630;-86
2021/11/22 05:11:50;;;;;;;18.93;15.63;;;;;;;;;;4954436;29;20206;-87
2021/11/22 05:14:17;;;;;;;15.73;13.30;;;;;;;;;;4954543;29;20637;-86
2021/11/22 05:16:45;;;;;;;15.57;12.10;;;;;;;;;;4954317;29;20206;-86
2021/11/22 05:19:14;;;;;;;14.27;12.60;;;;;;;;;;4954596;29;20237;-84
2021/11/22 05:21:41;;;;;;;18.53;13.03;;;;;;;;;;4953946;28;20674;-85
2021/11/22 05:24:09;;;;;;;19.93;16.23;;;;;;;;;;4956396;28;20662;-85
2021/11/22 05:26:36;;;;;;;40.57;26.47;;;;;;;;;;4973392;28;20193;-86
2021/11/22 05:29:08;;;;;;;50.33;34.10;;;;;;;;;;4972960;28;20216;-86
2021/11/22 05:31:36;;;;;;;32.17;23.10;;;;;;;;;;4973234;28;20181;-86
2021/11/22 05:34:04;;;;;;;26.90;22.30;;;;;;;;;;4973048;28;20197;-86
2021/11/22 05:36:34;;;;;;;26.63;19.77;;;;;;;;;;4973221;28;20232;-85
2021/11/22 05:39:02;;;;;;;26.90;20.83;;;;;;;;;;4973386;28;20284;-86
2021/11/22 05:41:29;;;;;;;25.23;18.83;;;;;;;;;;4973423;28;20205;-86
2021/11/22 05:43:57;;;;;;;18.00;14.87;;;;;;;;;;4973303;28;20291;-87
2021/11/22 05:46:25;;;;;;;19.03;15.00;;;;;;;;;;4973259;28;20232;-85
2021/11/22 05:48:53;;;;;;;17.17;15.00;;;;;;;;;;4973166;28;20636;-86
2021/11/22 05:51:20;;;;;;;16.83;15.20;;;;;;;;;;4973820;28;20204;-86
2021/11/22 05:53:49;;;;;;;28.03;22.60;;;;;;;;;;4973424;28;20211;-86
2021/11/22 05:56:18;;;;;;;23.83;20.00;;;;;;;;;;4973217;28;20239;-87
2021/11/22 05:58:46;;;;;;;23.07;19.77;;;;;;;;;;4973595;28;20201;-86
2021/11/22 06:01:14;;;;;;;22.10;16.50;;;;;;;;;;4973448;28;20293;-87
2021/11/22 06:03:42;;;;;;;26.60;22.37;;;;;;;;;;4973346;28;20243;-87
2021/11/22 06:06:10;;;;;;;36.30;27.10;;;;;;;;;;4973581;28;20197;-87
2021/11/22 06:08:38;;;;;;;34.13;25.80;;;;;;;;;;4973647;28;20200;-87
2021/11/22 06:11:05;;;;;;;102.73;62.93;;;;;;;;;;4973903;28;20205;-87
2021/11/22 06:13:33;;;;;;;87.30;48.67;;;;;;;;;;4973891;28;20244;-88
2021/11/22 06:16:00;;;;;;;33.13;23.60;;;;;;;;;;4973745;28;20221;-88
2021/11/22 06:18:27;;;;;;;14.67;12.87;;;;;;;;;;4973639;28;20228;-88
2021/11/22 06:20:56;;;;;;;17.77;15.17;;;;;;;;;;4973703;28;20727;-87
2021/11/22 06:23:23;;;;;;;14.00;12.57;;;;;;;;;;4973985;28;20209;-87
2021/11/22 06:25:51;;;;;;;20.83;14.70;;;;;;;;;;4973906;28;20242;-88
2021/11/22 06:28:19;;;;;;;20.23;15.87;;;;;;;;;;4973825;28;20276;-88
2021/11/22 06:30:47;;;;;;;17.27;15.13;;;;;;;;;;4973761;28;20201;-88
2021/11/22 06:33:14;;;;;;;21.77;17.10;;;;;;;;;;4973790;28;20248;-88
2021/11/22 06:35:41;;;;;;;19.37;14.97;;;;;;;;;;4976872;28;20648;-88
2021/11/22 06:38:11;;;;;;;17.37;15.33;;;;;;;;;;4977844;28;20237;-88
2021/11/22 06:40:38;;;;;;;18.07;15.70;;;;;;;;;;4977829;28;20300;-88
2021/11/22 06:43:06;;;;;;;19.13;16.47;;;;;;;;;;4977701;28;20656;-88
2021/11/22 06:45:33;;;;;;;20.50;15.53;;;;;;;;;;4977504;28;20201;-88
2021/11/22 06:48:00;;;;;;;16.10;14.47;;;;;;;;;;4977265;28;20264;-88
2021/11/22 06:50:28;;;;;;;16.17;14.17;;;;;;;;;;4977297;28;20197;-88
2021/11/22 06:52:55;;;;;;;15.97;13.40;;;;;;;;;;4977051;28;20247;-88
2021/11/22 06:55:24;;;;;;;17.13;15.30;;;;;;;;;;4977030;28;20320;-88
2021/11/22 06:57:51;;;;;;;17.53;15.40;;;;;;;;;;4977303;28;20201;-88
2021/11/22 07:00:21;;;;;;;18.70;16.00;;;;;;;;;;4977377;28;20205;-88
2021/11/22 07:02:51;;;;;;;18.20;16.23;;;;;;;;;;4976787;28;20592;-88
2021/11/22 07:05:18;;;;;;;16.37;14.70;;;;;;;;;;4977330;28;20636;-87
2021/11/22 07:07:45;;;;;;;16.27;14.43;;;;;;;;;;4976923;28;20204;-88
2021/11/22 07:10:13;;;;;;;17.20;15.30;;;;;;;;;;4977032;28;20201;-87
2021/11/22 07:12:42;;;;;;;19.50;16.93;;;;;;;;;;4976871;28;20292;-88
2021/11/22 07:15:11;;;;;;;19.03;17.03;;;;;;;;;;4976980;28;20236;-88
2021/11/22 07:17:38;;;;;;;20.47;14.60;;;;;;;;;;4976996;28;20208;-88
2021/11/22 07:20:06;;;;;;;17.53;14.87;;;;;;;;;;4976721;28;20260;-88
2021/11/22 07:22:33;;;;;;;15.07;12.97;;;;;;;;;;4977042;28;20205;-88
2021/11/22 07:25:01;;;;;;;15.00;11.43;;;;;;;;;;4976684;28;20201;-88
2021/11/22 07:27:28;;;;;;;12.70;11.40;;;;;;;;;;4976812;28;20691;-88
2021/11/22 07:29:57;;;;;;;14.13;12.63;;;;;;;;;;4976776;28;20640;-88
2021/11/22 07:32:26;;;;;;;13.50;12.07;;;;;;;;;;4976827;28;20686;-88
2021/11/22 07:34:54;;;;;;;14.60;13.10;;;;;;;;;;4976488;28;20201;-88
2021/11/22 07:37:21;;;;;;;15.00;13.43;;;;;;;;;;4976827;28;20216;-88
2021/11/22 07:39:49;;;;;;;17.13;14.07;;;;;;;;;;4976213;28;20697;-88
2021/11/22 07:42:17;;;;;;;15.33;12.80;;;;;;;;;;4976300;28;20201;-88
2021/11/22 07:44:45;;;;;;;15.60;14.07;;;;;;;;;;4976446;28;20207;-88
2021/11/22 07:47:14;;;;;;;16.00;14.30;;;;;;;;;;4976217;28;20201;-88
2021/11/22 07:49:41;;;;;;;12.37;11.10;;;;;;;;;;4975656;28;20209;-88
2021/11/22 07:52:09;;;;;;;14.00;12.57;;;;;;;;;;4976186;28;20232;-87
2021/11/22 07:54:36;;;;;;;14.43;12.80;;;;;;;;;;4976344;28;20205;-88
2021/11/22 07:57:04;;;;;;;16.67;14.90;;;;;;;;;;4975928;28;20287;-88
2021/11/22 07:59:31;;;;;;;16.63;13.67;;;;;;;;;;4976136;28;20741;-87
2021/11/22 08:02:00;;;;;;;13.60;12.03;;;;;;;;;;4976106;28;20205;-88
2021/11/22 08:04:29;;;;;;;13.67;12.43;;;;;;;;;;4975885;28;20189;-88
2021/11/22 08:07:00;;;;;;;16.00;14.30;;;;;;;;;;4975993;28;20605;-88
2021/11/22 08:09:30;;;;;;;13.80;12.40;;;;;;;;;;4975819;28;20189;-88
2021/11/22 08:12:14;;;;;;;17.57;12.33;;;;;;;;;;4975866;28;20669;-88
2021/11/22 08:14:42;;;;;;;15.83;13.87;;;;;;;;;;4975608;28;20199;-88
2021/11/22 08:17:11;;;;;;;15.43;13.93;;;;;;;;;;4975497;28;20315;-87
2021/11/22 08:19:40;;;;;;;15.63;13.03;;;;;;;;;;4975534;28;20297;-88
2021/11/22 08:22:09;;;;;;;13.53;11.70;;;;;;;;;;4975570;28;20194;-88
2021/11/22 08:24:36;;;;;;;14.03;12.60;;;;;;;;;;4975380;28;20203;-88
2021/11/22 08:27:04;;;;;;;12.27;11.07;;;;;;;;;;4975436;28;20317;-88
2021/11/22 08:29:31;;;;;;;13.03;10.40;;;;;;;;;;4975402;28;20236;-87
2021/11/22 08:31:59;;;;;;;11.30;10.00;;;;;;;;;;4975289;28;20198;-88
2021/11/22 08:34:26;;;;;;;10.20;8.90;;;;;;;;;;4975227;28;20688;-88
2021/11/22 08:36:55;;;;;;;9.60;8.47;;;;;;;;;;4975569;28;20739;-88
2021/11/22 08:39:23;;;;;;;10.00;9.07;;;;;;;;;;4975160;28;20293;-88
2021/11/22 08:41:50;;;;;;;11.27;10.17;;;;;;;;;;4975091;28;20207;-87
2021/11/22 08:44:17;;;;;;;10.47;9.30;;;;;;;;;;4975353;28;20197;-88
2021/11/22 08:46:46;;;;;;;14.40;10.73;;;;;;;;;;4975221;28;20193;-88
2021/11/22 08:49:15;;;;;;;12.00;10.53;;;;;;;;;;4975282;28;20205;-88
2021/11/22 08:51:42;;;;;;;9.03;8.10;;;;;;;;;;4974903;28;20684;-87
2021/11/22 08:54:12;;;;;;;10.33;8.40;;;;;;;;;;4975018;28;20306;-88
2021/11/22 08:56:39;;;;;;;11.07;9.57;;;;;;;;;;4974401;28;20248;-87
2021/11/22 08:59:06;;;;;;;11.67;10.47;;;;;;;;;;4974516;28;20287;-87
2021/11/22 09:01:34;;;;;;;9.83;8.90;;;;;;;;;;4974993;28;20208;-88
2021/11/22 09:04:01;;;;;;;14.33;11.63;;;;;;;;;;4974424;28;20228;-87
2021/11/22 09:06:29;;;;;;;12.13;10.93;;;;;;;;;;4974658;28;20641;-87
2021/11/22 09:08:56;;;;;;;14.57;11.73;;;;;;;;;;4974781;28;20230;-87
2021/11/22 09:11:25;;;;;;;14.40;12.23;;;;;;;;;;4974647;28;20263;-87
2021/11/22 09:13:52;;;;;;;19.13;12.47;;;;;;;;;;4974500;28;20232;-87
2021/11/22 09:16:26;;;;;;;14.53;12.03;;;;;;;;;;4974270;28;20312;-87
2021/11/22 09:18:53;;;;;;;15.57;13.30;;;;;;;;;;4974613;28;20215;-88
2021/11/22 09:21:21;;;;;;;13.80;12.23;;;;;;;;;;4974293;28;20294;-87
2021/11/22 09:23:48;;;;;;;15.07;12.93;;;;;;;;;;4974032;28;20674;-87
2021/11/22 09:26:16;;;;;;;17.97;13.60;;;;;;;;;;4974126;28;20205;-87
2021/11/22 09:28:45;;;;;;;17.47;13.50;;;;;;;;;;4974351;28;20195;-86
2021/11/22 09:31:13;;;;;;;15.47;13.80;;;;;;;;;;4974345;28;20207;-87
2021/11/22 09:33:40;;;;;;;18.53;14.40;;;;;;;;;;4974308;28;20643;-88
2021/11/22 09:36:08;;;;;;;18.07;14.00;;;;;;;;;;4973997;28;20221;-87
2021/11/22 09:38:35;;;;;;;17.43;13.87;;;;;;;;;;4974174;28;20205;-87
2021/11/22 09:41:03;;;;;;;21.60;14.17;;;;;;;;;;4973749;28;20201;-87
2021/11/22 09:43:30;;;;;;;16.27;12.50;;;;;;;;;;4973989;28;20219;-87
2021/11/22 09:46:00;;;;;;;17.27;13.80;;;;;;;;;;4973959;28;20673;-87
2021/11/22 09:48:27;;;;;;;16.33;14.67;;;;;;;;;;4974088;28;20644;-87
2021/11/22 09:50:55;;;;;;;19.50;13.23;;;;;;;;;;4973658;28;20247;-87
2021/11/22 09:53:23;;;;;;;14.60;13.07;;;;;;;;;;4973634;28;20203;-87
2021/11/22 09:55:50;;;;;;;17.37;13.70;;;;;;;;;;4973722;28;20327;-87
2021/11/22 09:58:18;;;;;;;18.17;13.27;;;;;;;;;;4974024;28;20283;-88
2021/11/22 10:00:47;;;;;;;17.20;14.27;;;;;;;;;;4973485;28;20258;-87
2021/11/22 10:03:18;;;;;;;15.17;13.03;;;;;;;;;;4973315;28;20291;-88
2021/11/22 10:05:46;;;;;;;13.57;11.93;;;;;;;;;;4973548;28;20236;-88
2021/11/22 10:08:15;;;;;;;14.73;13.07;;;;;;;;;;4973358;28;20269;-87
2021/11/22 10:10:44;;;;;;;15.03;12.33;;;;;;;;;;4972907;28;20240;-87
2021/11/22 10:13:27;;;;;;;17.17;12.73;;;;;;;;;;4973679;28;20203;-87
2021/11/22 10:15:57;;;;;;;14.23;12.83;;;;;;;;;;4973471;28;20195;-88
2021/11/22 10:18:27;;;;;;;13.67;12.23;;;;;;;;;;4973504;28;20194;-87
2021/11/22 10:20:56;;;;;;;13.83;12.43;;;;;;;;;;4973493;28;20661;-87
2021/11/22 10:23:25;;;;;;;13.77;11.50;;;;;;;;;;4973648;28;20207;-87
2021/11/22 10:25:54;;;;;;;13.90;12.40;;;;;;;;;;4973584;28;20575;-87
2021/11/22 10:28:23;;;;;;;14.37;12.87;;;;;;;;;;4973475;28;20202;-87
2021/11/22 10:30:52;;;;;;;17.90;13.53;;;;;;;;;;4973531;28;20279;-87
2021/11/22 10:33:21;;;;;;;16.70;12.17;;;;;;;;;;4973242;28;20198;-87
2021/11/22 10:35:52;;;;;;;13.90;12.50;;;;;;;;;;4973071;28;20298;-87
2021/11/22 10:38:21;;;;;;;15.10;11.97;;;;;;;;;;4973623;28;20224;-87
2021/11/22 10:40:51;;;;;;;14.17;11.97;;;;;;;;;;4973448;28;20263;-87
2021/11/22 10:43:19;;;;;;;14.83;12.63;;;;;;;;;;4973292;28;20199;-87
2021/11/22 10:45:47;;;;;;;15.50;12.43;;;;;;;;;;4973056;28;20200;-87
2021/11/22 10:48:22;;;;;;;15.57;13.00;;;;;;;;;;4973512;28;20556;-87
2021/11/22 10:51:01;;;;;;;15.50;11.70;;;;;;;;;;4973172;28;20284;-87
2021/11/22 10:53:32;;;;;;;14.07;11.83;;;;;;;;;;4973630;28;20220;-87
2021/11/22 10:56:00;;;;;;;13.63;12.23;;;;;;;;;;4972934;28;20649;-87
2021/11/22 10:58:49;;;;;;;17.67;12.40;;;;;;;;;;4973063;28;20243;-87
2021/11/22 11:01:19;;;;;;;16.80;13.57;;;;;;;;;;4973252;28;20279;-87
2021/11/22 11:03:58;;;;;;;17.23;13.90;;;;;;;;;;4972967;28;20245;-87
2021/11/22 11:06:41;;;;;;;15.87;13.20;;;;;;;;;;4973295;28;20623;-87
2021/11/22 11:09:11;;;;;;;19.37;14.50;;;;;;;;;;4972775;28;20286;-87
2021/11/22 11:11:38;;;;;;;16.37;13.63;;;;;;;;;;4972892;28;20199;-87
2021/11/22 11:14:10;;;;;;;17.37;13.77;;;;;;;;;;4972935;28;20257;-87
2021/11/22 11:16:38;;;;;;;24.47;15.17;;;;;;;;;;4973130;28;20286;-87
2021/11/22 11:19:07;;;;;;;17.63;14.33;;;;;;;;;;4973201;28;20206;-87
2021/11/22 11:21:36;;;;;;;18.13;14.83;;;;;;;;;;4975641;28;20265;-87
2021/11/22 11:24:06;;;;;;;24.53;15.50;;;;;;;;;;4976222;28;20247;-87
2021/11/22 11:26:34;;;;;;;20.97;14.87;;;;;;;;;;4976435;28;20619;-87
2021/11/22 11:29:02;;;;;;;16.20;12.93;;;;;;;;;;4976261;28;20214;-87
2021/11/22 11:31:30;;;;;;;16.63;13.53;;;;;;;;;;4976428;28;20281;-87
2021/11/22 11:33:58;;;;;;;20.40;14.80;;;;;;;;;;4976473;28;20613;-87
2021/11/22 11:36:43;;;;;;;19.87;17.23;;;;;;;;;;4976206;28;20656;-87
2021/11/22 11:39:22;;;;;;;14.87;13.30;;;;;;;;;;4976393;28;20603;-87
2021/11/22 11:41:58;;;;;;;16.77;14.80;;;;;;;;;;4976442;28;20251;-87
2021/11/22 11:44:38;;;;;;;16.70;13.50;;;;;;;;;;4976208;28;20189;-87
2021/11/22 11:47:15;;;;;;;19.47;13.50;;;;;;;;;;4975855;28;20204;-87
2021/11/22 11:49:42;;;;;;;16.63;14.50;;;;;;;;;;4975923;28;20200;-87
2021/11/22 11:52:23;;;;;;;19.40;14.80;;;;;;;;;;4975760;28;20280;-87
2021/11/22 11:54:53;;;;;;;20.60;15.77;;;;;;;;;;4975994;28;20631;-87
2021/11/22 11:57:22;;;;;;;18.57;15.53;;;;;;;;;;4975567;28;20294;-86
2021/11/22 11:59:49;;;;;;;15.57;13.80;;;;;;;;;;4975627;28;20550;-87
2021/11/22 12:02:25;;;;;;;18.27;13.77;;;;;;;;;;4975765;28;20322;-87
2021/11/22 12:04:57;;;;;;;19.07;16.00;;;;;;;;;;4975490;28;20199;-87
2021/11/22 12:07:27;;;;;;;16.80;14.93;;;;;;;;;;4975727;28;20226;-87
2021/11/22 12:10:12;;;;;;;23.60;18.57;;;;;;;;;;4975754;28;20337;-87
2021/11/22 12:12:41;;;;;;;18.00;16.10;;;;;;;;;;4975651;28;20707;-87
2021/11/22 12:15:16;;;;;;;33.43;17.00;;;;;;;;;;4975261;28;20201;-87
2021/11/22 12:18:05;;;;;;;17.87;15.97;;;;;;;;;;4975284;28;20208;-87
2021/11/22 12:20:56;;;;;;;16.57;14.83;;;;;;;;;;4968000;28;20256;-87
2021/11/22 12:23:29;;;;;;;18.90;16.23;;;;;;;;;;4975369;28;20249;-87
2021/11/22 12:26:00;;;;;;;18.33;15.80;;;;;;;;;;4975154;28;20237;-87
2021/11/22 12:28:45;;;;;;;23.07;18.23;;;;;;;;;;4975308;28;20190;-87
2021/11/22 12:31:15;;;;;;;18.77;16.70;;;;;;;;;;4974915;28;20190;-87
2021/11/22 12:33:44;;;;;;;18.47;16.03;;;;;;;;;;4974312;28;20207;-87
2021/11/22 12:36:41;;;;;;;17.87;15.93;;;;;;;;;;4974887;28;20205;-87
2021/11/22 12:39:13;;;;;;;16.07;14.07;;;;;;;;;;4974658;28;20226;-87
2021/11/22 12:41:42;;;;;;;18.83;15.93;;;;;;;;;;4975209;28;20189;-87
2021/11/22 12:44:11;;;;;;;18.97;16.53;;;;;;;;;;4974820;28;20205;-87
2021/11/22 12:46:41;;;;;;;23.20;20.17;;;;;;;;;;4975191;28;20581;-87
2021/11/22 12:49:41;;;;;;;21.23;17.13;;;;;;;;;;4974992;28;20225;-86
2021/11/22 12:52:18;;;;;;;18.20;16.30;;;;;;;;;;4974528;28;20233;-87
2021/11/22 12:54:54;;;;;;;16.97;15.13;;;;;;;;;;4974790;28;20189;-87
2021/11/22 12:57:26;;;;;;;22.03;14.13;;;;;;;;;;4974609;28;20635;-87
2021/11/22 13:00:12;;;;;;;19.07;14.87;;;;;;;;;;4974309;28;20220;-86
2021/11/22 13:02:41;;;;;;;23.70;21.23;;;;;;;;;;4974292;28;20233;-87
2021/11/22 13:05:09;;;;;;;18.90;16.33;;;;;;;;;;4974383;28;20197;-87
2021/11/22 13:07:53;;;;;;;20.03;16.63;;;;;;;;;;4974329;28;20201;-87
2021/11/22 13:10:38;;;;;;;18.70;16.70;;;;;;;;;;4974494;28;20332;-87
2021/11/22 13:13:12;;;;;;;24.53;22.07;;;;;;;;;;4974378;28;20207;-87
2021/11/22 13:15:55;;;;;;;49.23;38.60;;;;;;;;;;4974192;28;20197;-87
2021/11/22 13:18:24;;;;;;;56.53;42.70;;;;;;;;;;4973939;28;20228;-87
2021/11/22 13:20:52;;;;;;;27.63;20.57;;;;;;;;;;4974012;28;20248;-87
2021/11/22 13:23:22;;;;;;;32.53;18.80;;;;;;;;;;4973971;28;20697;-87
2021/11/22 13:25:50;;;;;;;44.30;32.07;;;;;;;;;;4974010;28;20182;-87
2021/11/22 13:28:21;;;;;;;24.00;21.03;;;;;;;;;;4973786;28;20201;-87
2021/11/22 13:30:50;;;;;;;28.97;16.03;;;;;;;;;;4973834;28;20191;-86
2021/11/22 13:33:17;;;;;;;35.30;24.37;;;;;;;;;;4974222;28;20205;-87
2021/11/22 13:35:45;;;;;;;24.80;20.63;;;;;;;;;;4973552;28;20210;-86
2021/11/22 13:38:13;;;;;;;29.53;20.87;;;;;;;;;;4973567;28;20793;-86
2021/11/22 13:40:42;;;;;;;21.63;14.83;;;;;;;;;;4973810;28;20663;-87
2021/11/22 13:43:11;;;;;;;13.53;12.23;;;;;;;;;;4973323;28;20205;-87
2021/11/22 13:45:40;;;;;;;35.40;24.03;;;;;;;;;;4973421;28;20674;-87
2021/11/22 13:48:08;;;;;;;73.27;41.30;;;;;;;;;;4973327;28;20203;-86
2021/11/22 13:50:43;;;;;;;26.17;17.63;;;;;;;;;;4973407;28;20574;-87
2021/11/22 13:53:13;;;;;;;9.50;8.10;;;;;;;;;;4973421;28;20211;-87
2021/11/22 13:55:40;;;;;;;12.23;8.00;;;;;;;;;;4973690;28;20230;-86
2021/11/22 13:58:12;;;;;;;104.40;64.93;;;;;;;;;;4973301;28;20232;-86
2021/11/22 14:00:42;;;;;;;94.97;54.60;;;;;;;;;;4973663;28;20636;-87
2021/11/22 14:03:10;;;;;;;26.20;16.43;;;;;;;;;;4973679;28;20283;-86
2021/11/22 14:05:38;;;;;;;20.87;14.57;;;;;;;;;;4973208;28;20200;-86
2021/11/22 14:08:06;;;;;;;11.40;10.13;;;;;;;;;;4973468;28;20201;-86
2021/11/22 14:10:37;;;;;;;12.00;10.40;;;;;;;;;;4973089;28;20255;-87
2021/11/22 14:13:08;;;;;;;13.13;10.83;;;;;;;;;;4973292;28;20196;-86
2021/11/22 14:15:36;;;;;;;15.70;14.20;;;;;;;;;;4973241;28;20231;-86
2021/11/22 14:18:11;;;;;;;20.20;17.87;;;;;;;;;;4973351;28;20225;-86
2021/11/22 14:20:44;;;;;;;15.43;13.93;;;;;;;;;;4973359;28;20215;-86
2021/11/22 14:23:12;;;;;;;11.40;10.03;;;;;;;;;;4973041;28;20201;-86
2021/11/22 14:25:40;;;;;;;16.10;12.33;;;;;;;;;;4973114;28;20224;-86
2021/11/22 14:28:15;;;;;;;15.67;14.17;;;;;;;;;;4973205;28;20768;-86
2021/11/22 14:30:44;;;;;;;24.53;21.57;;;;;;;;;;4972952;28;20196;-86
2021/11/22 14:33:16;;;;;;;18.47;16.53;;;;;;;;;;4972956;28;20201;-86